Time;durP1;ratioP1;P1;durP2;ratioP2;P2;SDS_P1;SDS_P2;PMS_P1;PMS_P2;Temp;Humidity;BMP_temperature;BMP_pressure;BME280_temperature;BME280_humidity;BME280_pressure;Samples;Min_cycle;Max_cycle;Signal;HPM_P1;HPM_P2
2022/07/16 00:01:23;;;;;;;3.10;1.52;;;15.70;88.60;;;;;;5056834;28;20087;-65
2022/07/16 00:03:54;;;;;;;3.42;1.40;;;15.60;88.90;;;;;;5055973;28;20111;-66
2022/07/16 00:06:21;;;;;;;2.75;1.48;;;15.60;89.20;;;;;;5045826;28;20048;-66
2022/07/16 00:08:47;;;;;;;2.92;1.65;;;15.50;89.60;;;;;;5051736;28;20063;-65
2022/07/16 00:11:13;;;;;;;3.03;1.40;;;15.40;90.00;;;;;;5052363;28;20060;-66
2022/07/16 00:13:39;;;;;;;2.38;1.92;;;15.40;90.20;;;;;;5054935;28;20707;-66
2022/07/16 00:16:06;;;;;;;2.42;1.42;;;15.40;90.40;;;;;;5056851;28;20099;-66
2022/07/16 00:21:16;;;;;;;2.22;1.45;;;15.30;90.80;;;;;;5047842;28;20057;-66
2022/07/16 00:23:41;;;;;;;5.40;1.65;;;15.30;91.00;;;;;;5045818;28;20143;-65
2022/07/16 00:26:07;;;;;;;2.25;1.52;;;15.30;91.30;;;;;;5048056;28;20469;-66
2022/07/16 00:28:32;;;;;;;2.28;2.00;;;15.30;91.40;;;;;;5063885;28;20037;-66
2022/07/16 00:30:58;;;;;;;1.73;1.40;;;15.50;91.40;;;;;;5055548;28;20095;-65
2022/07/16 00:33:24;;;;;;;2.28;1.48;;;15.50;91.60;;;;;;5050838;28;20041;-65
2022/07/16 00:35:49;;;;;;;2.28;1.73;;;15.50;91.60;;;;;;5048472;28;20033;-66
2022/07/16 00:38:15;;;;;;;2.20;1.70;;;15.60;91.60;;;;;;5049292;28;20039;-66
2022/07/16 00:40:40;;;;;;;3.55;1.88;;;15.60;91.60;;;;;;5049896;28;20029;-66
2022/07/16 00:43:15;;;;;;;3.47;1.83;;;15.70;91.70;;;;;;5059444;28;20032;-66
2022/07/16 00:45:41;;;;;;;3.90;1.77;;;15.70;91.90;;;;;;5049819;28;20028;-65
2022/07/16 00:48:07;;;;;;;2.55;1.50;;;15.70;92.00;;;;;;5050820;28;20120;-65
2022/07/16 00:50:35;;;;;;;2.50;1.50;;;15.80;91.70;;;;;;5052378;28;20443;-66
2022/07/16 00:53:01;;;;;;;3.42;1.60;;;15.80;91.70;;;;;;5047898;28;20044;-65
2022/07/16 00:55:27;;;;;;;3.58;1.45;;;15.80;91.70;;;;;;5048158;28;20084;-66
2022/07/16 00:57:58;;;;;;;6.20;1.88;;;15.80;91.70;;;;;;5055022;28;20052;-65
2022/07/16 01:00:24;;;;;;;3.55;1.60;;;15.80;91.70;;;;;;5055074;28;20041;-65
2022/07/16 01:02:50;;;;;;;4.55;1.75;;;15.80;91.80;;;;;;5057352;28;20048;-65
2022/07/16 01:05:16;;;;;;;2.95;1.60;;;15.80;91.90;;;;;;5054525;28;20036;-66
2022/07/16 01:07:43;;;;;;;4.85;1.80;;;15.90;92.10;;;;;;5049146;28;20039;-66
2022/07/16 01:10:09;;;;;;;3.40;1.30;;;15.90;91.90;;;;;;5052135;28;20041;-65
2022/07/16 01:12:35;;;;;;;2.55;1.60;;;15.90;91.90;;;;;;5052320;28;20041;-65
2022/07/16 01:15:01;;;;;;;2.22;1.90;;;15.90;91.90;;;;;;5053828;28;20044;-64
2022/07/16 01:17:27;;;;;;;2.30;1.52;;;15.90;92.00;;;;;;5049377;28;20048;-66
2022/07/16 01:19:53;;;;;;;2.38;1.88;;;15.90;92.00;;;;;;5044900;28;20049;-65
2022/07/16 01:22:20;;;;;;;4.63;2.05;;;15.70;92.40;;;;;;5052368;28;20040;-67
2022/07/16 01:24:46;;;;;;;4.50;1.92;;;15.30;94.60;;;;;;5046266;28;20033;-67
2022/07/16 01:27:12;;;;;;;2.30;1.90;;;15.10;96.60;;;;;;5057391;28;20036;-67
2022/07/16 01:29:37;;;;;;;2.63;2.10;;;14.90;98.20;;;;;;5049718;28;20040;-67
2022/07/16 01:32:03;;;;;;;2.53;2.10;;;14.80;99.90;;;;;;5050364;28;20045;-66
2022/07/16 01:34:29;;;;;;;5.47;2.85;;;14.70;99.90;;;;;;5049794;28;20044;-66
2022/07/16 01:37:04;;;;;;;4.10;2.70;;;14.60;99.90;;;;;;5045873;28;20082;-66
2022/07/16 01:39:31;;;;;;;4.57;2.80;;;14.70;99.90;;;;;;5047096;28;20106;-66
2022/07/16 01:41:59;;;;;;;4.97;2.97;;;14.60;99.90;;;;;;5055901;28;20044;-67
2022/07/16 01:44:26;;;;;;;4.22;3.00;;;14.60;99.90;;;;;;5048950;28;20040;-66
2022/07/16 01:46:52;;;;;;;5.55;3.50;;;14.60;99.90;;;;;;5052763;28;20059;-66
2022/07/16 01:49:18;;;;;;;5.28;3.75;;;14.70;99.90;;;;;;5045826;28;20423;-66
2022/07/16 01:51:44;;;;;;;8.35;3.42;;;14.60;99.90;;;;;;5050687;28;20033;-66
2022/07/16 01:54:09;;;;;;;6.25;3.50;;;14.70;99.90;;;;;;5054690;28;20044;-66
2022/07/16 01:56:35;;;;;;;5.13;3.67;;;14.60;99.90;;;;;;5049165;28;20053;-66
2022/07/16 01:59:01;;;;;;;6.13;4.50;;;14.70;99.90;;;;;;5058695;28;20583;-66
2022/07/16 02:01:27;;;;;;;5.05;3.20;;;14.70;99.90;;;;;;5056866;28;20040;-65
2022/07/16 02:03:52;;;;;;;5.13;3.65;;;14.70;99.90;;;;;;5052795;28;20540;-66
2022/07/16 02:06:18;;;;;;;5.28;3.67;;;14.70;99.90;;;;;;5048251;28;20040;-66
2022/07/16 02:08:43;;;;;;;5.25;3.65;;;14.70;99.90;;;;;;5057039;28;20127;-65
2022/07/16 02:11:09;;;;;;;5.43;3.53;;;14.70;99.90;;;;;;5048893;28;20094;-65
2022/07/16 02:13:34;;;;;;;4.43;3.67;;;14.70;99.90;;;;;;5053322;28;20044;-66
2022/07/16 02:16:00;;;;;;;5.15;3.78;;;14.70;99.90;;;;;;5054666;28;20037;-66
2022/07/16 02:18:26;;;;;;;5.95;3.28;;;14.70;99.90;;;;;;5048699;28;20394;-65
2022/07/16 02:20:53;;;;;;;4.80;3.47;;;14.70;99.90;;;;;;5058345;28;20037;-66
2022/07/16 02:23:19;;;;;;;4.28;3.10;;;14.70;99.90;;;;;;5057160;28;20037;-66
2022/07/16 02:25:45;;;;;;;7.25;3.10;;;14.70;99.90;;;;;;5047670;28;20078;-65
2022/07/16 02:28:10;;;;;;;5.03;3.35;;;14.70;99.90;;;;;;5062947;28;20033;-65
2022/07/16 02:30:42;;;;;;;7.22;2.95;;;14.60;99.90;;;;;;5049710;28;20031;-65
2022/07/16 02:33:09;;;;;;;4.35;2.83;;;14.60;99.90;;;;;;5053209;28;20065;-65
2022/07/16 02:35:36;;;;;;;3.85;2.83;;;14.60;99.90;;;;;;5056336;28;20043;-65
2022/07/16 02:38:02;;;;;;;4.85;2.92;;;14.60;99.90;;;;;;5054691;28;20396;-65
2022/07/16 02:40:29;;;;;;;4.90;3.00;;;14.60;99.90;;;;;;5053861;28;20115;-65
2022/07/16 02:42:55;;;;;;;5.15;2.83;;;14.60;99.90;;;;;;5058959;28;20182;-65
2022/07/16 02:45:21;;;;;;;6.60;3.10;;;14.60;99.90;;;;;;5055207;28;20488;-65
2022/07/16 02:47:47;;;;;;;4.07;2.80;;;14.50;99.90;;;;;;5053637;28;20045;-65
2022/07/16 02:50:12;;;;;;;4.55;3.13;;;14.50;99.90;;;;;;5058147;28;20115;-65
2022/07/16 02:52:38;;;;;;;7.05;3.60;;;14.50;99.90;;;;;;5060408;28;20404;-65
2022/07/16 02:55:05;;;;;;;3.60;2.90;;;14.60;99.90;;;;;;5049754;28;20040;-65
2022/07/16 02:57:31;;;;;;;4.30;2.60;;;14.50;99.90;;;;;;5056809;28;20047;-65
2022/07/16 02:59:56;;;;;;;4.30;2.80;;;14.50;99.90;;;;;;5048215;28;20072;-65
2022/07/16 03:02:22;;;;;;;5.18;2.50;;;14.50;99.90;;;;;;5051857;28;20150;-65
2022/07/16 03:04:49;;;;;;;5.72;2.38;;;14.50;99.90;;;;;;5051322;28;20350;-65
2022/07/16 03:07:14;;;;;;;5.03;2.30;;;14.50;99.90;;;;;;5052049;28;20047;-64
2022/07/16 03:09:40;;;;;;;3.25;2.10;;;14.50;99.90;;;;;;5057279;28;20481;-64
2022/07/16 03:12:05;;;;;;;5.80;2.30;;;14.50;99.90;;;;;;5053834;28;20039;-65
2022/07/16 03:14:31;;;;;;;5.28;2.20;;;14.50;99.90;;;;;;5053432;28;20070;-65
2022/07/16 03:16:57;;;;;;;4.80;2.05;;;14.50;99.90;;;;;;5063261;28;20044;-64
2022/07/16 03:19:22;;;;;;;4.32;1.98;;;14.50;99.90;;;;;;5060086;28;20056;-65
2022/07/16 03:21:48;;;;;;;3.45;1.75;;;14.50;99.90;;;;;;5049581;28;20048;-65
2022/07/16 03:24:13;;;;;;;2.97;1.80;;;14.50;99.90;;;;;;5055117;28;20032;-64
2022/07/16 03:26:39;;;;;;;4.97;1.92;;;14.40;99.90;;;;;;5058836;28;20048;-65
2022/07/16 03:29:04;;;;;;;4.13;1.92;;;14.40;99.90;;;;;;5049787;28;20052;-64
2022/07/16 03:31:30;;;;;;;4.47;1.80;;;14.40;99.90;;;;;;5052152;28;20047;-65
2022/07/16 03:33:55;;;;;;;5.05;1.95;;;14.30;99.90;;;;;;5048970;28;20040;-64
2022/07/16 03:36:22;;;;;;;3.17;1.83;;;14.20;99.90;;;;;;5054284;28;20099;-64
2022/07/16 03:38:58;;;;;;;4.10;1.90;;;14.20;99.90;;;;;;5053885;28;20572;-64
2022/07/16 03:41:23;;;;;;;3.95;1.77;;;14.10;99.90;;;;;;5058523;28;21907;-65
2022/07/16 03:43:49;;;;;;;3.92;2.00;;;14.10;99.90;;;;;;5050519;28;20071;-65
2022/07/16 03:46:15;;;;;;;4.05;1.77;;;14.00;99.90;;;;;;5049637;28;20614;-64
2022/07/16 03:48:41;;;;;;;4.90;1.98;;;13.90;99.90;;;;;;5050091;28;20665;-64
2022/07/16 03:51:07;;;;;;;3.88;2.28;;;13.90;99.90;;;;;;5050921;28;20043;-64
2022/07/16 03:53:33;;;;;;;4.45;2.15;;;13.90;99.90;;;;;;5051671;28;20484;-64
2022/07/16 03:55:59;;;;;;;2.65;1.70;;;13.80;99.90;;;;;;5048629;28;20049;-64
2022/07/16 03:58:26;;;;;;;5.80;2.00;;;13.80;99.90;;;;;;5058455;28;20418;-65
2022/07/16 04:00:52;;;;;;;4.72;2.05;;;13.80;99.90;;;;;;5059949;28;20477;-64
2022/07/16 04:03:18;;;;;;;5.00;1.92;;;13.70;99.90;;;;;;5049918;28;20552;-64
2022/07/16 04:05:44;;;;;;;3.85;1.90;;;13.70;99.90;;;;;;5054169;28;20115;-64
2022/07/16 04:08:09;;;;;;;6.75;2.20;;;13.70;99.90;;;;;;5048629;28;20354;-64
2022/07/16 04:10:35;;;;;;;4.00;1.90;;;13.70;99.90;;;;;;5050212;28;20051;-64
2022/07/16 04:13:01;;;;;;;6.60;2.05;;;13.70;99.90;;;;;;5062932;28;20044;-64
2022/07/16 04:15:26;;;;;;;3.55;2.15;;;13.70;99.90;;;;;;5053839;28;20045;-64
2022/07/16 04:17:52;;;;;;;5.60;2.35;;;13.60;99.90;;;;;;5061614;28;20123;-64
2022/07/16 04:20:18;;;;;;;6.72;2.25;;;13.70;99.90;;;;;;5049524;28;20043;-64
2022/07/16 04:22:43;;;;;;;6.18;2.50;;;13.60;99.90;;;;;;5056816;28;20033;-64
2022/07/16 04:25:09;;;;;;;3.63;1.95;;;13.70;99.90;;;;;;5051443;28;20086;-64
2022/07/16 04:27:34;;;;;;;6.60;2.40;;;13.70;99.90;;;;;;5050803;28;20041;-64
2022/07/16 04:30:00;;;;;;;7.63;2.38;;;13.70;99.90;;;;;;5057061;28;20028;-64
2022/07/16 04:32:25;;;;;;;6.25;2.20;;;13.70;99.90;;;;;;5056725;28;20052;-65
2022/07/16 04:34:51;;;;;;;5.55;2.05;;;13.70;99.90;;;;;;5051721;28;20047;-64
2022/07/16 04:37:17;;;;;;;5.13;2.55;;;13.60;99.90;;;;;;5055650;28;20044;-63
2022/07/16 04:39:42;;;;;;;5.30;2.10;;;13.60;99.90;;;;;;5054914;28;20086;-64
2022/07/16 04:42:08;;;;;;;7.45;2.72;;;13.60;99.90;;;;;;5058033;28;20041;-63
2022/07/16 04:44:33;;;;;;;4.07;2.00;;;13.60;99.90;;;;;;5056002;28;20037;-63
2022/07/16 04:46:59;;;;;;;5.28;2.33;;;13.60;99.90;;;;;;5059677;28;20037;-63
2022/07/16 04:49:24;;;;;;;7.53;2.10;;;13.70;99.90;;;;;;5055491;28;20041;-63
2022/07/16 04:51:50;;;;;;;10.70;2.10;;;13.70;99.90;;;;;;5048959;28;20071;-63
2022/07/16 04:54:15;;;;;;;4.13;2.08;;;13.80;99.90;;;;;;5049189;28;20039;-63
2022/07/16 04:56:41;;;;;;;7.72;1.90;;;13.80;99.90;;;;;;5048706;28;20461;-63
2022/07/16 04:59:07;;;;;;;4.85;2.03;;;13.90;99.90;;;;;;5049651;28;20557;-64
2022/07/16 05:01:32;;;;;;;4.63;1.73;;;13.90;99.90;;;;;;5047756;28;20553;-63
2022/07/16 05:03:58;;;;;;;4.35;1.90;;;14.00;99.90;;;;;;5058130;28;20040;-63
2022/07/16 05:06:23;;;;;;;6.55;2.00;;;14.00;99.90;;;;;;5049984;28;20041;-63
2022/07/16 05:08:49;;;;;;;2.65;1.60;;;14.10;99.90;;;;;;5053124;28;20040;-63
2022/07/16 05:11:14;;;;;;;5.18;2.30;;;14.20;99.90;;;;;;5048696;28;20037;-62
2022/07/16 05:13:40;;;;;;;5.03;2.00;;;14.30;99.90;;;;;;5047072;28;20043;-63
2022/07/16 05:16:06;;;;;;;6.38;2.03;;;14.40;99.90;;;;;;5048625;28;20080;-64
2022/07/16 05:18:31;;;;;;;3.83;2.15;;;14.50;99.90;;;;;;5055159;28;20091;-63
2022/07/16 05:20:57;;;;;;;4.63;1.70;;;14.60;99.90;;;;;;5052675;28;20029;-63
2022/07/16 05:23:23;;;;;;;6.07;2.00;;;14.70;99.90;;;;;;5064726;28;20124;-64
2022/07/16 05:25:48;;;;;;;4.75;1.90;;;14.90;99.90;;;;;;5052921;28;20419;-63
2022/07/16 05:28:14;;;;;;;6.10;1.80;;;15.10;99.90;;;;;;5049275;28;20036;-63
2022/07/16 05:30:39;;;;;;;3.63;1.60;;;15.20;99.90;;;;;;5045517;28;20390;-63
2022/07/16 05:33:05;;;;;;;4.38;1.60;;;15.30;99.90;;;;;;5061536;28;20044;-63
2022/07/16 05:35:30;;;;;;;6.15;1.90;;;15.30;99.90;;;;;;5051367;28;20551;-63
2022/07/16 05:37:56;;;;;;;7.32;1.67;;;15.30;99.90;;;;;;5048693;28;20029;-63
2022/07/16 05:40:22;;;;;;;6.90;1.70;;;15.20;99.90;;;;;;5049072;28;20037;-63
2022/07/16 05:42:47;;;;;;;4.32;1.70;;;15.20;99.90;;;;;;5065002;28;20573;-63
2022/07/16 05:45:13;;;;;;;3.83;1.33;;;15.10;99.90;;;;;;5057690;28;20045;-63
2022/07/16 05:47:38;;;;;;;7.32;2.53;;;15.10;99.90;;;;;;5061379;28;20090;-63
2022/07/16 05:50:05;;;;;;;3.58;1.70;;;15.10;99.90;;;;;;5054562;28;20469;-63
2022/07/16 05:52:30;;;;;;;5.63;1.27;;;15.20;99.90;;;;;;5055057;28;20044;-64
2022/07/16 05:54:56;;;;;;;2.45;1.20;;;15.40;99.90;;;;;;5057884;28;20044;-64
2022/07/16 05:57:21;;;;;;;5.70;1.58;;;15.60;99.90;;;;;;5048455;28;20389;-64
2022/07/16 05:59:47;;;;;;;6.10;1.55;;;15.90;99.90;;;;;;5050045;28;20040;-64
2022/07/16 06:02:13;;;;;;;3.75;1.30;;;16.10;99.90;;;;;;5050488;28;20098;-64
2022/07/16 06:04:38;;;;;;;4.32;1.42;;;16.30;99.90;;;;;;5057590;28;20032;-65
2022/07/16 06:07:04;;;;;;;4.72;1.40;;;16.50;99.90;;;;;;5058168;28;20029;-66
2022/07/16 06:09:30;;;;;;;7.40;1.52;;;16.60;99.90;;;;;;5067868;28;20024;-65
2022/07/16 06:11:55;;;;;;;2.83;1.15;;;16.80;99.90;;;;;;5065173;28;20883;-66
2022/07/16 06:14:21;;;;;;;4.75;1.40;;;17.00;99.90;;;;;;5059452;28;20074;-67
2022/07/16 06:16:47;;;;;;;5.05;1.05;;;17.10;99.90;;;;;;5061460;28;20159;-65
2022/07/16 06:19:13;;;;;;;5.43;1.00;;;17.30;99.90;;;;;;5057338;28;20051;-65
2022/07/16 06:21:39;;;;;;;6.45;1.63;;;17.30;99.90;;;;;;5048820;28;20053;-65
2022/07/16 06:24:05;;;;;;;3.33;1.05;;;17.40;99.90;;;;;;5053509;28;20041;-65
2022/07/16 06:26:31;;;;;;;4.53;0.98;;;17.50;99.90;;;;;;5054761;28;20059;-65
2022/07/16 06:28:56;;;;;;;5.15;1.17;;;17.60;99.90;;;;;;5068514;28;20508;-65
2022/07/16 06:31:22;;;;;;;5.03;1.27;;;17.60;99.90;;;;;;5064254;28;20045;-66
2022/07/16 06:33:48;;;;;;;4.85;1.40;;;17.60;99.20;;;;;;5054934;28;20033;-66
2022/07/16 06:36:13;;;;;;;8.35;1.20;;;17.70;98.10;;;;;;5052033;28;20033;-66
2022/07/16 06:38:39;;;;;;;4.72;0.80;;;17.70;97.20;;;;;;5056734;28;20040;-66
2022/07/16 06:41:04;;;;;;;7.40;1.40;;;17.90;96.40;;;;;;5057163;28;20119;-65
2022/07/16 06:43:30;;;;;;;7.75;1.40;;;18.00;95.20;;;;;;5055786;28;20440;-65
2022/07/16 06:45:56;;;;;;;4.88;1.02;;;18.20;94.70;;;;;;5053774;28;20041;-65
2022/07/16 06:48:22;;;;;;;5.68;1.52;;;18.50;94.20;;;;;;5053220;28;20033;-67
2022/07/16 06:50:48;;;;;;;4.72;1.45;;;18.70;93.70;;;;;;5058414;28;20037;-66
2022/07/16 06:53:14;;;;;;;3.55;0.90;;;18.80;93.20;;;;;;5057002;28;20041;-66
2022/07/16 06:55:39;;;;;;;6.80;1.40;;;19.10;92.60;;;;;;5057281;28;20059;-65
2022/07/16 06:58:05;;;;;;;3.83;0.80;;;19.20;92.10;;;;;;5058486;28;20052;-68
2022/07/16 07:00:30;;;;;;;4.00;0.90;;;19.30;91.10;;;;;;5062832;28;20128;-66
2022/07/16 07:02:56;;;;;;;3.05;0.93;;;19.50;90.70;;;;;;5051078;28;20044;-66
2022/07/16 07:05:22;;;;;;;3.40;0.55;;;19.70;90.00;;;;;;5048000;28;20454;-65
2022/07/16 07:07:47;;;;;;;3.15;0.75;;;19.90;87.70;;;;;;5062581;28;20036;-66
2022/07/16 07:10:13;;;;;;;6.85;1.00;;;20.00;85.10;;;;;;5051068;28;20040;-66
2022/07/16 07:12:39;;;;;;;6.43;1.08;;;20.10;83.60;;;;;;5051953;28;20048;-65
2022/07/16 07:15:05;;;;;;;3.60;0.93;;;20.20;80.20;;;;;;5050139;28;20132;-66
2022/07/16 07:17:31;;;;;;;3.45;1.00;;;20.30;79.40;;;;;;5050964;28;20041;-65
2022/07/16 07:19:56;;;;;;;3.30;1.00;;;20.40;78.00;;;;;;5057918;28;20063;-66
2022/07/16 07:22:22;;;;;;;3.80;0.82;;;20.70;76.20;;;;;;5043025;28;20041;-66
2022/07/16 07:24:49;;;;;;;2.28;0.60;;;20.90;74.30;;;;;;5042425;28;20037;-68
2022/07/16 07:27:16;;;;;;;3.58;0.60;;;21.20;71.40;;;;;;5053419;28;20039;-66
2022/07/16 07:29:42;;;;;;;2.78;0.73;;;21.50;69.30;;;;;;5054736;28;20063;-68
2022/07/16 07:32:07;;;;;;;7.45;0.88;;;21.60;67.80;;;;;;5065552;28;20559;-64
2022/07/16 07:34:33;;;;;;;2.13;0.70;;;21.40;66.40;;;;;;5053690;28;20044;-65
2022/07/16 07:36:59;;;;;;;3.70;0.80;;;21.20;65.40;;;;;;5049274;28;20079;-66
2022/07/16 07:39:25;;;;;;;2.85;0.50;;;20.90;65.00;;;;;;5031414;28;23857;-66
2022/07/16 07:41:51;;;;;;;5.55;1.10;;;20.60;64.60;;;;;;5034393;28;20057;-65
2022/07/16 07:44:16;;;;;;;2.38;0.55;;;20.30;64.20;;;;;;5046113;28;20058;-65
2022/07/16 07:46:42;;;;;;;4.95;0.82;;;20.00;64.10;;;;;;5026033;28;20107;-65
2022/07/16 07:49:10;;;;;;;2.10;0.60;;;19.80;64.30;;;;;;5046366;28;20045;-66
2022/07/16 07:51:36;;;;;;;1.85;0.75;;;19.50;64.50;;;;;;5052780;28;20112;-65
2022/07/16 07:54:02;;;;;;;2.58;0.82;;;19.40;65.00;;;;;;5048576;28;20128;-66
2022/07/16 07:56:28;;;;;;;3.80;0.60;;;19.50;65.40;;;;;;5048541;28;20045;-65
2022/07/16 07:58:53;;;;;;;2.38;0.77;;;19.40;65.30;;;;;;5048035;28;20049;-65
2022/07/16 08:01:19;;;;;;;2.65;0.70;;;19.40;65.20;;;;;;5051240;28;20045;-65
2022/07/16 08:03:44;;;;;;;3.60;0.80;;;19.30;64.80;;;;;;5058166;28;20470;-65
2022/07/16 08:06:10;;;;;;;3.08;0.70;;;19.20;64.60;;;;;;5048069;28;20472;-65
2022/07/16 08:08:35;;;;;;;2.72;0.70;;;19.30;64.60;;;;;;5046025;28;20554;-65
2022/07/16 08:11:01;;;;;;;2.55;0.40;;;19.80;64.30;;;;;;5049341;28;20085;-66
2022/07/16 08:13:27;;;;;;;4.80;0.90;;;20.20;63.90;;;;;;5050178;28;20048;-67
2022/07/16 08:15:52;;;;;;;2.55;0.45;;;20.80;62.80;;;;;;5059165;28;20040;-67
2022/07/16 08:18:18;;;;;;;3.00;0.70;;;21.20;61.00;;;;;;5052950;28;20488;-67
2022/07/16 08:20:43;;;;;;;1.42;0.52;;;21.60;59.90;;;;;;5053256;28;20369;-66
2022/07/16 08:23:09;;;;;;;2.17;0.65;;;21.70;59.40;;;;;;5056394;28;20393;-66
2022/07/16 08:25:46;;;;;;;6.18;0.90;;;22.10;57.90;;;;;;5064075;28;20047;-66
2022/07/16 08:28:14;;;;;;;2.03;0.70;;;22.40;56.90;;;;;;5062261;28;20911;-66
2022/07/16 08:30:41;;;;;;;3.85;0.93;;;22.70;55.30;;;;;;5062946;28;20033;-66
2022/07/16 08:33:06;;;;;;;2.63;0.70;;;22.70;53.20;;;;;;5069536;28;20411;-66
2022/07/16 08:35:32;;;;;;;2.67;0.52;;;22.50;53.20;;;;;;5051431;28;20040;-67
2022/07/16 08:37:57;;;;;;;2.50;0.60;;;22.20;52.90;;;;;;5066245;28;20609;-67
2022/07/16 08:40:24;;;;;;;1.95;0.45;;;21.90;52.70;;;;;;5046917;28;20098;-66
2022/07/16 08:42:50;;;;;;;2.83;0.80;;;21.90;52.60;;;;;;5051682;28;20029;-66
2022/07/16 08:45:19;;;;;;;3.03;0.60;;;21.60;52.40;;;;;;5050781;28;20037;-66
2022/07/16 08:47:45;;;;;;;2.38;0.68;;;21.60;52.60;;;;;;5048940;28;20041;-66
2022/07/16 08:50:14;;;;;;;3.95;0.68;;;22.00;52.30;;;;;;5049493;28;22341;-67
2022/07/16 08:52:50;;;;;;;3.85;1.23;;;22.20;51.70;;;;;;5048623;28;20045;-66
2022/07/16 08:55:15;;;;;;;3.30;0.60;;;22.20;51.10;;;;;;5052123;28;20060;-66
2022/07/16 08:57:41;;;;;;;4.32;0.77;;;22.40;51.50;;;;;;5058180;28;20055;-66
2022/07/16 09:00:13;;;;;;;3.15;0.68;;;22.40;51.70;;;;;;5059822;28;20545;-66
2022/07/16 09:02:39;;;;;;;3.60;0.75;;;22.30;52.60;;;;;;5053511;28;20072;-66
2022/07/16 09:05:06;;;;;;;2.83;0.65;;;22.30;52.40;;;;;;5065447;28;20495;-66
2022/07/16 09:07:32;;;;;;;3.67;0.70;;;22.70;52.30;;;;;;5053972;28;20033;-66
2022/07/16 09:09:58;;;;;;;1.95;0.63;;;23.00;52.10;;;;;;5056033;28;20047;-66
2022/07/16 09:12:34;;;;;;;2.90;0.70;;;22.90;52.20;;;;;;5050934;28;20511;-66
2022/07/16 09:15:00;;;;;;;1.77;0.73;;;22.90;52.20;;;;;;5050961;28;20488;-66
2022/07/16 09:17:26;;;;;;;5.20;0.70;;;23.00;52.00;;;;;;5035451;28;20052;-66
2022/07/16 09:19:51;;;;;;;2.83;0.93;;;23.20;52.80;;;;;;5055970;28;20048;-66
2022/07/16 09:22:17;;;;;;;4.93;0.70;;;23.10;52.90;;;;;;5067031;28;20040;-66
2022/07/16 09:24:48;;;;;;;5.07;0.90;;;22.90;52.40;;;;;;5050445;28;20492;-67
2022/07/16 09:27:21;;;;;;;2.15;0.70;;;22.70;52.80;;;;;;5051693;28;20029;-66
2022/07/16 09:29:59;;;;;;;3.80;0.65;;;22.50;53.10;;;;;;5049047;28;20049;-66
2022/07/16 09:32:39;;;;;;;2.60;0.68;;;22.30;53.10;;;;;;5065934;28;20061;-65
2022/07/16 09:35:13;;;;;;;3.47;0.70;;;22.10;53.70;;;;;;5045066;28;20052;-66
2022/07/16 09:37:45;;;;;;;3.97;0.82;;;21.90;54.20;;;;;;5053553;28;20036;-67
2022/07/16 09:40:11;;;;;;;3.17;0.80;;;21.70;55.10;;;;;;5064254;28;20151;-66
2022/07/16 09:42:37;;;;;;;7.80;1.27;;;21.50;55.50;;;;;;5060590;28;20041;-68
2022/07/16 09:45:03;;;;;;;2.42;0.70;;;21.20;55.40;;;;;;5052575;28;20037;-66
2022/07/16 09:47:29;;;;;;;5.32;1.13;;;21.00;55.50;;;;;;5050942;28;20082;-66
2022/07/16 09:49:55;;;;;;;6.70;1.00;;;21.00;55.50;;;;;;5047443;28;20041;-66
2022/07/16 09:52:30;;;;;;;5.70;0.73;;;21.50;55.30;;;;;;5028764;28;20858;-66
2022/07/16 09:54:57;;;;;;;2.53;0.73;;;22.30;54.50;;;;;;5049904;28;20067;-66
2022/07/16 09:57:25;;;;;;;3.67;0.82;;;23.30;53.20;;;;;;5057088;28;20095;-66
2022/07/16 09:59:51;;;;;;;2.25;0.77;;;24.40;51.20;;;;;;5060249;28;20045;-67
2022/07/16 10:02:17;;;;;;;4.25;1.13;;;25.50;50.10;;;;;;5058455;28;20055;-66
2022/07/16 10:04:43;;;;;;;3.50;0.60;;;26.00;47.70;;;;;;5049987;28;20033;-66
2022/07/16 10:07:08;;;;;;;4.18;0.85;;;26.40;46.50;;;;;;5051873;28;20045;-65
2022/07/16 10:09:34;;;;;;;3.78;0.70;;;26.10;45.30;;;;;;5051669;28;20037;-66
2022/07/16 10:12:10;;;;;;;2.90;0.60;;;25.50;45.70;;;;;;5068613;28;20527;-66
2022/07/16 10:14:38;;;;;;;2.67;0.70;;;25.50;45.40;;;;;;5055126;28;20040;-66
2022/07/16 10:17:13;;;;;;;4.25;0.75;;;25.50;45.10;;;;;;5066174;28;20040;-66
2022/07/16 10:19:39;;;;;;;2.38;0.65;;;25.90;43.90;;;;;;5057904;28;20080;-67
2022/07/16 10:22:17;;;;;;;4.93;0.80;;;27.10;43.70;;;;;;5052006;28;20442;-66
2022/07/16 10:24:45;;;;;;;3.40;0.88;;;28.60;41.90;;;;;;5061307;28;20036;-67
2022/07/16 10:27:34;;;;;;;5.30;0.80;;;29.50;40.20;;;;;;5061359;28;20079;-66
2022/07/16 10:30:09;;;;;;;4.45;1.10;;;28.90;38.00;;;;;;5055393;28;20797;-66
2022/07/16 10:33:00;;;;;;;5.68;1.10;;;27.70;39.90;;;;;;5065169;28;20040;-65
2022/07/16 10:35:47;;;;;;;2.10;0.90;;;26.80;40.70;;;;;;5052621;28;20111;-66
2022/07/16 10:38:27;;;;;;;7.28;1.30;;;27.50;41.70;;;;;;5068422;28;20175;-67
2022/07/16 10:41:07;;;;;;;4.70;0.73;;;28.50;39.80;;;;;;5054368;28;20047;-67
2022/07/16 10:43:33;;;;;;;3.65;0.88;;;29.50;38.40;;;;;;5059483;28;20158;-67
2022/07/16 10:46:02;;;;;;;3.50;0.70;;;30.40;37.60;;;;;;5053097;28;20048;-68
2022/07/16 10:48:29;;;;;;;3.83;1.00;;;30.70;36.20;;;;;;5059917;28;20040;-67
2022/07/16 10:51:20;;;;;;;4.03;0.80;;;30.40;35.40;;;;;;5060956;28;20037;-67
2022/07/16 10:53:57;;;;;;;2.47;0.60;;;29.60;36.30;;;;;;5051779;28;20044;-67
2022/07/16 10:56:44;;;;;;;3.10;0.93;;;28.70;35.60;;;;;;5067700;28;20453;-67
2022/07/16 10:59:12;;;;;;;5.57;1.63;;;28.10;37.40;;;;;;5057741;28;20037;-66
2022/07/16 11:01:41;;;;;;;3.60;1.17;;;27.30;38.70;;;;;;5058226;28;20033;-66
2022/07/16 11:04:09;;;;;;;2.20;0.60;;;27.10;38.90;;;;;;5065690;28;20032;-67
2022/07/16 11:06:35;;;;;;;2.83;0.68;;;26.90;39.40;;;;;;5053871;28;20388;-67
2022/07/16 11:09:03;;;;;;;2.17;0.75;;;26.80;39.10;;;;;;5048473;28;20040;-66
2022/07/16 11:11:40;;;;;;;4.03;0.75;;;26.30;38.70;;;;;;5057707;28;20091;-66
2022/07/16 11:14:09;;;;;;;3.10;0.68;;;25.90;38.80;;;;;;5056351;28;20036;-66
2022/07/16 11:16:35;;;;;;;1.92;0.90;;;25.60;39.60;;;;;;5066054;28;20036;-67
2022/07/16 11:19:02;;;;;;;2.65;0.70;;;25.40;40.10;;;;;;5067892;28;20041;-66
2022/07/16 11:21:28;;;;;;;5.72;0.85;;;25.00;41.20;;;;;;5047183;28;20048;-67
2022/07/16 11:24:00;;;;;;;3.65;0.90;;;24.90;42.20;;;;;;5054495;28;20033;-67
2022/07/16 11:26:29;;;;;;;3.15;0.60;;;24.70;42.10;;;;;;5050984;28;20079;-67
2022/07/16 11:29:00;;;;;;;1.98;0.70;;;24.50;42.20;;;;;;5055166;28;20048;-67
2022/07/16 11:31:34;;;;;;;4.40;0.82;;;24.30;42.30;;;;;;5051818;28;20041;-66
2022/07/16 11:34:02;;;;;;;2.45;0.93;;;24.50;42.90;;;;;;5052379;28;20178;-67
2022/07/16 11:36:30;;;;;;;2.80;0.88;;;24.40;43.00;;;;;;5051701;28;20058;-66
2022/07/16 11:39:14;;;;;;;4.72;1.00;;;24.40;43.30;;;;;;5060966;28;20511;-66
2022/07/16 11:41:43;;;;;;;72.63;5.88;;;24.40;44.40;;;;;;5057999;28;20483;-64
2022/07/16 11:44:10;;;;;;;56.10;5.63;;;24.40;44.00;;;;;;5069346;28;20036;-66
2022/07/16 11:46:45;;;;;;;52.85;5.45;;;24.40;43.90;;;;;;5053750;28;20389;-66
2022/07/16 11:49:20;;;;;;;81.82;10.07;;;24.20;44.00;;;;;;5060695;28;20037;-66
2022/07/16 11:51:45;;;;;;;91.65;11.15;;;24.10;44.20;;;;;;5057346;28;20400;-65
2022/07/16 11:54:11;;;;;;;113.30;10.00;;;24.00;44.30;;;;;;5050397;28;20044;-65
2022/07/16 11:56:39;;;;;;;52.88;5.05;;;24.10;45.30;;;;;;5052190;28;20049;-65
2022/07/16 11:59:16;;;;;;;21.17;2.10;;;24.30;44.20;;;;;;5049864;28;20052;-65
2022/07/16 12:01:42;;;;;;;4.03;0.88;;;24.80;43.50;;;;;;5071009;28;20036;-65
2022/07/16 12:04:08;;;;;;;4.90;0.68;;;25.00;43.10;;;;;;5067758;28;20052;-66
2022/07/16 12:06:34;;;;;;;3.42;0.70;;;25.00;42.90;;;;;;5055604;28;20033;-65
2022/07/16 12:09:02;;;;;;;4.00;0.82;;;24.70;42.40;;;;;;5048230;28;20060;-65
2022/07/16 12:11:30;;;;;;;4.60;0.85;;;24.50;42.40;;;;;;5061866;28;20095;-65
2022/07/16 12:13:56;;;;;;;1.48;0.60;;;24.70;42.40;;;;;;5054397;28;20524;-66
2022/07/16 12:16:22;;;;;;;3.17;0.93;;;25.00;41.60;;;;;;5058690;28;20036;-67
2022/07/16 12:19:05;;;;;;;1.83;0.68;;;25.40;41.20;;;;;;5051624;28;20043;-66
2022/07/16 12:21:32;;;;;;;11.63;1.60;;;25.50;41.50;;;;;;5055232;28;20028;-66
2022/07/16 12:23:57;;;;;;;11.98;1.40;;;25.40;42.20;;;;;;5059877;28;20063;-67
2022/07/16 12:26:31;;;;;;;5.78;1.20;;;25.30;43.00;;;;;;5056278;28;20033;-66
2022/07/16 12:28:57;;;;;;;7.80;1.30;;;25.50;43.00;;;;;;5050531;28;20041;-66
2022/07/16 12:31:27;;;;;;;6.60;1.00;;;26.90;42.00;;;;;;5051868;28;20029;-67
2022/07/16 12:33:53;;;;;;;5.55;0.75;;;28.50;40.50;;;;;;5052028;28;20128;-66
2022/07/16 12:36:19;;;;;;;6.63;1.00;;;30.40;38.40;;;;;;5034125;28;20094;-66
2022/07/16 12:39:02;;;;;;;7.07;1.35;;;31.40;36.30;;;;;;5062101;28;20048;-66
2022/07/16 12:41:45;;;;;;;9.32;1.60;;;30.50;35.80;;;;;;5050456;28;20033;-66
2022/07/16 12:44:20;;;;;;;20.65;2.47;;;29.40;36.20;;;;;;5051301;28;20037;-68
2022/07/16 12:46:51;;;;;;;6.43;1.38;;;30.20;37.30;;;;;;5048179;28;20037;-67
2022/07/16 12:49:20;;;;;;;5.20;1.02;;;30.80;36.10;;;;;;5050006;28;20033;-66